Terminal Aerodrome Forecast
Issued by NWS

Home | Current Version | Previous Version | Text Only | Print | Product List | Glossary On
Versions: 1 2 3 4 5 6 7 8 9 10 11 12 13 14 15 16 17
000
FTUS45 KGJT 312329
TAFASE
TAF
KASE 312329Z 0100/0124 33007KT P6SM FEW080 SCT150
     FM010230 19006KT P6SM SKC
     FM011400 00000KT P6SM SKC
     FM011800 35006KT P6SM VCTS FEW100CB SCT200
     FM012000 33006KT P6SM VCTS SCT100CB BKN200=

USA.gov is the U.S. government's official web portal to all federal, state and local government web resources and services.